LJLJ/LJU METAR and TAF weather

Enter ICAO airport designator
Station Type Date Time Source
LJLJ METAR 2018/12/12 13:00 UTC NOAA

LJLJ 121300Z VRB01KT 9999 FEW060 01/M03 Q1018 NOSIG


Station Type Date Time Source
LJLJ Decoded METAR 2018/12/12 13:00 UTC NOAA

Ljubljana / Brnik, Slovenia (LJLJ) 46-13N 014-29E 362M
Dec 12, 2018 - 08:00 AM EST / 2018.12.12 1300 UTC
Wind: Variable at 1 MPH (1 KT):0
Visibility: greater than 7 mile(s):0
Sky conditions: mostly clear
Temperature: 33 F (1 C)
Dew Point: 26 F (-3 C)
Relative Humidity: 74%
Pressure (altimeter): 30.06 in. Hg (1018 hPa)
ob: LJLJ 121300Z VRB01KT 9999 FEW060 01/M03 Q1018 NOSIG
cycle: 13

Station Type Date Time Source
LJLJ TAF 2018/12/12 12:06 UTC NOAA

TAF LJLJ 121100Z 1212/1312 VRB02KT CAVOK
BECMG 1217/1218 30003KT
TEMPO 1220/1303 SCT060
BECMG 1306/1309 BKN040
TEMPO 1306/1312 7000 -SN


Example: see airport list